sensor_id;sensor_type;location;lat;lon;timestamp;P1;durP1;ratioP1;P2;durP2;ratioP2
21152;SDS011;10734;44.792;20.482;2023-06-05T00:02:07;5.88;;;5.03;;
21152;SDS011;10734;44.792;20.482;2023-06-05T00:04:33;9.35;;;5.55;;
21152;SDS011;10734;44.792;20.482;2023-06-05T00:07:02;8.20;;;5.85;;
21152;SDS011;10734;44.792;20.482;2023-06-05T00:09:29;7.85;;;5.63;;
21152;SDS011;10734;44.792;20.482;2023-06-05T00:11:55;11.20;;;5.60;;
21152;SDS011;10734;44.792;20.482;2023-06-05T00:14:22;9.23;;;5.60;;
21152;SDS011;10734;44.792;20.482;2023-06-05T00:16:49;8.30;;;6.00;;
21152;SDS011;10734;44.792;20.482;2023-06-05T00:19:19;8.77;;;6.47;;
21152;SDS011;10734;44.792;20.482;2023-06-05T00:21:46;12.18;;;5.93;;
21152;SDS011;10734;44.792;20.482;2023-06-05T00:24:12;8.98;;;6.47;;
21152;SDS011;10734;44.792;20.482;2023-06-05T00:26:39;9.35;;;6.35;;
21152;SDS011;10734;44.792;20.482;2023-06-05T00:29:05;8.95;;;6.43;;
21152;SDS011;10734;44.792;20.482;2023-06-05T00:31:33;8.30;;;6.65;;
21152;SDS011;10734;44.792;20.482;2023-06-05T00:33:59;10.73;;;7.43;;
21152;SDS011;10734;44.792;20.482;2023-06-05T00:36:26;8.80;;;6.22;;
21152;SDS011;10734;44.792;20.482;2023-06-05T00:38:54;9.13;;;6.60;;
21152;SDS011;10734;44.792;20.482;2023-06-05T00:41:20;15.18;;;7.43;;
21152;SDS011;10734;44.792;20.482;2023-06-05T00:43:47;10.00;;;7.13;;
21152;SDS011;10734;44.792;20.482;2023-06-05T00:46:14;12.13;;;6.57;;
21152;SDS011;10734;44.792;20.482;2023-06-05T00:48:41;12.65;;;7.22;;
21152;SDS011;10734;44.792;20.482;2023-06-05T00:51:09;11.23;;;7.15;;
21152;SDS011;10734;44.792;20.482;2023-06-05T00:53:40;10.40;;;6.82;;
21152;SDS011;10734;44.792;20.482;2023-06-05T00:56:07;11.25;;;7.75;;
21152;SDS011;10734;44.792;20.482;2023-06-05T00:58:33;11.98;;;7.60;;
21152;SDS011;10734;44.792;20.482;2023-06-05T01:01:00;10.63;;;7.25;;
21152;SDS011;10734;44.792;20.482;2023-06-05T01:03:30;13.60;;;8.35;;
21152;SDS011;10734;44.792;20.482;2023-06-05T01:06:00;10.40;;;7.95;;
21152;SDS011;10734;44.792;20.482;2023-06-05T01:08:31;14.55;;;8.43;;
21152;SDS011;10734;44.792;20.482;2023-06-05T01:11:16;13.15;;;8.38;;
21152;SDS011;10734;44.792;20.482;2023-06-05T01:13:50;13.70;;;8.88;;
21152;SDS011;10734;44.792;20.482;2023-06-05T01:16:20;10.30;;;8.60;;
21152;SDS011;10734;44.792;20.482;2023-06-05T01:18:58;11.68;;;8.98;;
21152;SDS011;10734;44.792;20.482;2023-06-05T01:21:29;13.48;;;9.10;;
21152;SDS011;10734;44.792;20.482;2023-06-05T01:23:57;15.57;;;9.32;;
21152;SDS011;10734;44.792;20.482;2023-06-05T01:26:24;12.68;;;8.88;;
21152;SDS011;10734;44.792;20.482;2023-06-05T01:28:54;17.20;;;9.68;;
21152;SDS011;10734;44.792;20.482;2023-06-05T01:31:22;13.90;;;9.73;;
21152;SDS011;10734;44.792;20.482;2023-06-05T01:34:00;11.30;;;9.23;;
21152;SDS011;10734;44.792;20.482;2023-06-05T01:36:28;15.65;;;9.88;;
21152;SDS011;10734;44.792;20.482;2023-06-05T01:38:55;13.50;;;8.90;;
21152;SDS011;10734;44.792;20.482;2023-06-05T01:41:22;14.65;;;9.27;;
21152;SDS011;10734;44.792;20.482;2023-06-05T01:43:49;14.52;;;8.90;;
21152;SDS011;10734;44.792;20.482;2023-06-05T01:46:17;13.73;;;9.07;;
21152;SDS011;10734;44.792;20.482;2023-06-05T01:48:44;17.63;;;9.93;;
21152;SDS011;10734;44.792;20.482;2023-06-05T01:51:11;14.90;;;9.00;;
21152;SDS011;10734;44.792;20.482;2023-06-05T01:53:38;15.95;;;9.43;;
21152;SDS011;10734;44.792;20.482;2023-06-05T01:56:04;11.93;;;9.45;;
21152;SDS011;10734;44.792;20.482;2023-06-05T01:58:33;16.70;;;10.60;;
21152;SDS011;10734;44.792;20.482;2023-06-05T02:01:00;17.10;;;9.45;;
21152;SDS011;10734;44.792;20.482;2023-06-05T02:03:26;13.48;;;9.00;;
21152;SDS011;10734;44.792;20.482;2023-06-05T02:05:53;15.60;;;8.68;;
21152;SDS011;10734;44.792;20.482;2023-06-05T02:08:20;18.25;;;8.98;;
21152;SDS011;10734;44.792;20.482;2023-06-05T02:10:49;13.43;;;9.00;;
21152;SDS011;10734;44.792;20.482;2023-06-05T02:13:16;12.88;;;9.68;;
21152;SDS011;10734;44.792;20.482;2023-06-05T02:15:43;13.15;;;8.75;;
21152;SDS011;10734;44.792;20.482;2023-06-05T02:18:11;14.70;;;10.00;;
21152;SDS011;10734;44.792;20.482;2023-06-05T02:20:40;16.13;;;9.32;;
21152;SDS011;10734;44.792;20.482;2023-06-05T02:23:07;15.38;;;8.90;;
21152;SDS011;10734;44.792;20.482;2023-06-05T02:25:34;13.73;;;10.18;;
21152;SDS011;10734;44.792;20.482;2023-06-05T02:28:01;13.45;;;9.93;;
21152;SDS011;10734;44.792;20.482;2023-06-05T02:30:27;14.68;;;9.85;;
21152;SDS011;10734;44.792;20.482;2023-06-05T02:32:54;15.65;;;8.90;;
21152;SDS011;10734;44.792;20.482;2023-06-05T02:35:27;13.10;;;9.63;;
21152;SDS011;10734;44.792;20.482;2023-06-05T02:37:55;13.95;;;9.43;;
21152;SDS011;10734;44.792;20.482;2023-06-05T02:40:22;19.55;;;9.32;;
21152;SDS011;10734;44.792;20.482;2023-06-05T02:42:49;10.43;;;9.18;;
21152;SDS011;10734;44.792;20.482;2023-06-05T02:45:16;14.35;;;9.30;;
21152;SDS011;10734;44.792;20.482;2023-06-05T02:47:43;14.75;;;9.57;;
21152;SDS011;10734;44.792;20.482;2023-06-05T02:50:10;13.48;;;10.15;;
21152;SDS011;10734;44.792;20.482;2023-06-05T02:52:36;16.30;;;9.57;;
21152;SDS011;10734;44.792;20.482;2023-06-05T02:55:05;15.07;;;9.77;;
21152;SDS011;10734;44.792;20.482;2023-06-05T02:57:33;15.00;;;9.73;;
21152;SDS011;10734;44.792;20.482;2023-06-05T03:00:08;12.98;;;9.88;;
21152;SDS011;10734;44.792;20.482;2023-06-05T03:02:35;13.27;;;8.65;;
21152;SDS011;10734;44.792;20.482;2023-06-05T03:05:03;14.13;;;9.52;;
21152;SDS011;10734;44.792;20.482;2023-06-05T03:07:30;16.90;;;9.60;;
21152;SDS011;10734;44.792;20.482;2023-06-05T03:10:00;13.50;;;9.50;;
21152;SDS011;10734;44.792;20.482;2023-06-05T03:12:27;16.30;;;9.43;;
21152;SDS011;10734;44.792;20.482;2023-06-05T03:14:54;15.38;;;9.93;;
21152;SDS011;10734;44.792;20.482;2023-06-05T03:17:21;13.38;;;9.30;;
21152;SDS011;10734;44.792;20.482;2023-06-05T03:19:49;15.00;;;8.65;;
21152;SDS011;10734;44.792;20.482;2023-06-05T03:22:17;10.32;;;8.48;;
21152;SDS011;10734;44.792;20.482;2023-06-05T03:24:43;16.08;;;9.38;;
21152;SDS011;10734;44.792;20.482;2023-06-05T03:27:10;17.27;;;9.70;;
21152;SDS011;10734;44.792;20.482;2023-06-05T03:29:37;12.20;;;9.80;;
21152;SDS011;10734;44.792;20.482;2023-06-05T03:32:03;22.63;;;9.65;;
21152;SDS011;10734;44.792;20.482;2023-06-05T03:34:30;17.17;;;9.45;;
21152;SDS011;10734;44.792;20.482;2023-06-05T03:36:56;13.48;;;8.90;;
21152;SDS011;10734;44.792;20.482;2023-06-05T03:39:25;10.50;;;8.27;;
21152;SDS011;10734;44.792;20.482;2023-06-05T03:41:52;14.13;;;9.55;;
21152;SDS011;10734;44.792;20.482;2023-06-05T03:44:19;13.15;;;9.07;;
21152;SDS011;10734;44.792;20.482;2023-06-05T03:46:46;13.55;;;8.02;;
21152;SDS011;10734;44.792;20.482;2023-06-05T03:49:13;13.82;;;8.27;;
21152;SDS011;10734;44.792;20.482;2023-06-05T03:51:39;12.63;;;8.85;;
21152;SDS011;10734;44.792;20.482;2023-06-05T03:54:08;12.75;;;8.10;;
21152;SDS011;10734;44.792;20.482;2023-06-05T03:56:35;10.20;;;7.68;;
21152;SDS011;10734;44.792;20.482;2023-06-05T03:59:05;14.25;;;8.60;;
21152;SDS011;10734;44.792;20.482;2023-06-05T04:01:45;13.02;;;8.27;;
21152;SDS011;10734;44.792;20.482;2023-06-05T04:04:12;12.23;;;7.15;;
21152;SDS011;10734;44.792;20.482;2023-06-05T04:06:39;12.25;;;8.15;;
21152;SDS011;10734;44.792;20.482;2023-06-05T04:09:07;16.35;;;8.40;;
21152;SDS011;10734;44.792;20.482;2023-06-05T04:11:39;9.35;;;7.13;;
21152;SDS011;10734;44.792;20.482;2023-06-05T04:14:05;9.15;;;7.90;;
21152;SDS011;10734;44.792;20.482;2023-06-05T04:16:34;13.27;;;8.15;;
21152;SDS011;10734;44.792;20.482;2023-06-05T04:19:00;13.57;;;8.82;;
21152;SDS011;10734;44.792;20.482;2023-06-05T04:21:27;13.38;;;7.22;;
21152;SDS011;10734;44.792;20.482;2023-06-05T04:23:56;9.88;;;6.90;;
21152;SDS011;10734;44.792;20.482;2023-06-05T04:26:23;10.65;;;7.18;;
21152;SDS011;10734;44.792;20.482;2023-06-05T04:28:52;7.82;;;6.90;;
21152;SDS011;10734;44.792;20.482;2023-06-05T04:31:19;13.32;;;8.10;;
21152;SDS011;10734;44.792;20.482;2023-06-05T04:33:45;14.40;;;7.93;;
21152;SDS011;10734;44.792;20.482;2023-06-05T04:36:12;10.15;;;7.13;;
21152;SDS011;10734;44.792;20.482;2023-06-05T04:38:39;12.45;;;6.82;;
21152;SDS011;10734;44.792;20.482;2023-06-05T04:41:06;10.65;;;6.70;;
21152;SDS011;10734;44.792;20.482;2023-06-05T04:43:33;10.18;;;7.13;;
21152;SDS011;10734;44.792;20.482;2023-06-05T04:45:59;8.43;;;6.60;;
21152;SDS011;10734;44.792;20.482;2023-06-05T04:48:27;9.80;;;6.70;;
21152;SDS011;10734;44.792;20.482;2023-06-05T04:50:54;10.25;;;6.05;;
21152;SDS011;10734;44.792;20.482;2023-06-05T04:53:22;9.30;;;5.80;;
21152;SDS011;10734;44.792;20.482;2023-06-05T04:55:48;7.97;;;6.40;;
21152;SDS011;10734;44.792;20.482;2023-06-05T04:58:15;8.90;;;6.63;;
21152;SDS011;10734;44.792;20.482;2023-06-05T05:00:42;12.20;;;6.60;;
21152;SDS011;10734;44.792;20.482;2023-06-05T05:03:11;7.28;;;5.53;;
21152;SDS011;10734;44.792;20.482;2023-06-05T05:05:39;10.27;;;5.97;;
21152;SDS011;10734;44.792;20.482;2023-06-05T05:08:06;12.52;;;6.30;;
21152;SDS011;10734;44.792;20.482;2023-06-05T05:10:33;10.07;;;5.97;;
21152;SDS011;10734;44.792;20.482;2023-06-05T05:13:00;8.05;;;5.60;;
21152;SDS011;10734;44.792;20.482;2023-06-05T05:15:29;8.23;;;5.63;;
21152;SDS011;10734;44.792;20.482;2023-06-05T05:17:56;13.43;;;5.80;;
21152;SDS011;10734;44.792;20.482;2023-06-05T05:20:23;11.82;;;6.32;;
21152;SDS011;10734;44.792;20.482;2023-06-05T05:22:50;10.80;;;5.38;;
21152;SDS011;10734;44.792;20.482;2023-06-05T05:25:17;8.90;;;5.63;;
21152;SDS011;10734;44.792;20.482;2023-06-05T05:27:43;7.93;;;5.68;;
21152;SDS011;10734;44.792;20.482;2023-06-05T05:30:10;11.95;;;5.57;;
21152;SDS011;10734;44.792;20.482;2023-06-05T05:32:38;11.15;;;5.72;;
21152;SDS011;10734;44.792;20.482;2023-06-05T05:35:04;9.40;;;5.88;;
21152;SDS011;10734;44.792;20.482;2023-06-05T05:37:33;9.05;;;6.18;;
21152;SDS011;10734;44.792;20.482;2023-06-05T05:40:00;8.75;;;5.18;;
21152;SDS011;10734;44.792;20.482;2023-06-05T05:42:26;6.35;;;5.40;;
21152;SDS011;10734;44.792;20.482;2023-06-05T05:44:53;12.07;;;5.30;;
21152;SDS011;10734;44.792;20.482;2023-06-05T05:47:20;8.00;;;5.32;;
21152;SDS011;10734;44.792;20.482;2023-06-05T05:49:46;7.68;;;4.53;;
21152;SDS011;10734;44.792;20.482;2023-06-05T05:52:13;8.57;;;5.28;;
21152;SDS011;10734;44.792;20.482;2023-06-05T05:54:40;10.93;;;4.47;;
21152;SDS011;10734;44.792;20.482;2023-06-05T05:57:07;5.55;;;4.40;;
21152;SDS011;10734;44.792;20.482;2023-06-05T05:59:34;8.07;;;4.43;;
21152;SDS011;10734;44.792;20.482;2023-06-05T06:02:01;6.57;;;4.80;;
21152;SDS011;10734;44.792;20.482;2023-06-05T06:04:35;7.93;;;4.50;;
21152;SDS011;10734;44.792;20.482;2023-06-05T06:07:02;8.90;;;4.22;;
21152;SDS011;10734;44.792;20.482;2023-06-05T06:09:29;7.45;;;4.90;;
21152;SDS011;10734;44.792;20.482;2023-06-05T06:11:56;5.75;;;4.38;;
21152;SDS011;10734;44.792;20.482;2023-06-05T06:14:23;8.88;;;4.47;;
21152;SDS011;10734;44.792;20.482;2023-06-05T06:16:50;5.75;;;4.32;;
21152;SDS011;10734;44.792;20.482;2023-06-05T06:19:17;7.65;;;4.78;;
21152;SDS011;10734;44.792;20.482;2023-06-05T06:21:50;8.25;;;5.13;;
21152;SDS011;10734;44.792;20.482;2023-06-05T06:24:17;11.80;;;4.35;;
21152;SDS011;10734;44.792;20.482;2023-06-05T06:26:48;5.57;;;4.45;;
21152;SDS011;10734;44.792;20.482;2023-06-05T06:29:18;6.07;;;4.47;;
21152;SDS011;10734;44.792;20.482;2023-06-05T06:34:14;6.85;;;4.68;;
21152;SDS011;10734;44.792;20.482;2023-06-05T06:36:40;6.68;;;4.68;;
21152;SDS011;10734;44.792;20.482;2023-06-05T06:39:07;11.05;;;4.82;;
21152;SDS011;10734;44.792;20.482;2023-06-05T06:41:37;7.60;;;4.68;;
21152;SDS011;10734;44.792;20.482;2023-06-05T06:44:04;9.82;;;4.03;;
21152;SDS011;10734;44.792;20.482;2023-06-05T06:46:31;7.85;;;4.43;;
21152;SDS011;10734;44.792;20.482;2023-06-05T06:48:58;8.63;;;4.78;;
21152;SDS011;10734;44.792;20.482;2023-06-05T06:51:25;7.43;;;3.90;;
21152;SDS011;10734;44.792;20.482;2023-06-05T06:53:52;9.88;;;4.72;;
21152;SDS011;10734;44.792;20.482;2023-06-05T06:56:18;10.60;;;4.95;;
21152;SDS011;10734;44.792;20.482;2023-06-05T06:58:45;10.52;;;4.25;;
21152;SDS011;10734;44.792;20.482;2023-06-05T07:01:13;6.57;;;3.80;;
21152;SDS011;10734;44.792;20.482;2023-06-05T07:03:41;11.20;;;4.53;;
21152;SDS011;10734;44.792;20.482;2023-06-05T07:06:11;6.50;;;4.45;;
21152;SDS011;10734;44.792;20.482;2023-06-05T07:08:38;6.45;;;4.20;;
21152;SDS011;10734;44.792;20.482;2023-06-05T07:11:05;8.32;;;4.95;;
21152;SDS011;10734;44.792;20.482;2023-06-05T07:13:32;6.93;;;4.38;;
21152;SDS011;10734;44.792;20.482;2023-06-05T07:16:00;5.00;;;3.88;;
21152;SDS011;10734;44.792;20.482;2023-06-05T07:18:27;8.65;;;4.70;;
21152;SDS011;10734;44.792;20.482;2023-06-05T07:20:55;6.00;;;4.00;;
21152;SDS011;10734;44.792;20.482;2023-06-05T07:23:22;14.90;;;7.63;;
21152;SDS011;10734;44.792;20.482;2023-06-05T07:25:50;14.07;;;9.23;;
21152;SDS011;10734;44.792;20.482;2023-06-05T07:28:19;7.60;;;5.05;;
21152;SDS011;10734;44.792;20.482;2023-06-05T07:30:46;7.97;;;4.40;;
21152;SDS011;10734;44.792;20.482;2023-06-05T07:33:13;5.57;;;4.13;;
21152;SDS011;10734;44.792;20.482;2023-06-05T07:38:22;6.90;;;4.28;;
21152;SDS011;10734;44.792;20.482;2023-06-05T07:40:49;5.57;;;4.18;;
21152;SDS011;10734;44.792;20.482;2023-06-05T07:43:15;7.10;;;4.00;;
21152;SDS011;10734;44.792;20.482;2023-06-05T07:45:44;6.85;;;4.47;;
21152;SDS011;10734;44.792;20.482;2023-06-05T07:48:11;6.10;;;4.80;;
21152;SDS011;10734;44.792;20.482;2023-06-05T07:50:38;5.87;;;4.10;;
21152;SDS011;10734;44.792;20.482;2023-06-05T07:53:05;5.20;;;4.45;;
21152;SDS011;10734;44.792;20.482;2023-06-05T07:55:32;6.88;;;4.40;;
21152;SDS011;10734;44.792;20.482;2023-06-05T07:57:59;5.55;;;4.35;;
21152;SDS011;10734;44.792;20.482;2023-06-05T08:00:31;10.88;;;5.00;;
21152;SDS011;10734;44.792;20.482;2023-06-05T08:02:58;4.53;;;4.13;;
21152;SDS011;10734;44.792;20.482;2023-06-05T08:05:27;7.30;;;4.03;;
21152;SDS011;10734;44.792;20.482;2023-06-05T08:07:54;5.13;;;4.32;;
21152;SDS011;10734;44.792;20.482;2023-06-05T08:10:22;6.93;;;3.65;;
21152;SDS011;10734;44.792;20.482;2023-06-05T08:13:01;4.25;;;3.80;;
21152;SDS011;10734;44.792;20.482;2023-06-05T08:15:27;9.82;;;4.35;;
21152;SDS011;10734;44.792;20.482;2023-06-05T08:17:55;12.27;;;4.53;;
21152;SDS011;10734;44.792;20.482;2023-06-05T08:20:22;7.38;;;4.43;;
21152;SDS011;10734;44.792;20.482;2023-06-05T08:22:49;5.82;;;4.05;;
21152;SDS011;10734;44.792;20.482;2023-06-05T08:25:16;8.15;;;4.40;;
21152;SDS011;10734;44.792;20.482;2023-06-05T08:27:43;6.18;;;4.80;;
21152;SDS011;10734;44.792;20.482;2023-06-05T08:30:10;8.65;;;4.90;;
21152;SDS011;10734;44.792;20.482;2023-06-05T08:32:37;5.70;;;4.28;;
21152;SDS011;10734;44.792;20.482;2023-06-05T08:35:04;8.63;;;4.53;;
21152;SDS011;10734;44.792;20.482;2023-06-05T08:37:31;6.00;;;3.92;;
21152;SDS011;10734;44.792;20.482;2023-06-05T08:39:58;5.93;;;4.28;;
21152;SDS011;10734;44.792;20.482;2023-06-05T08:42:28;5.13;;;4.63;;
21152;SDS011;10734;44.792;20.482;2023-06-05T08:44:55;4.55;;;4.03;;
21152;SDS011;10734;44.792;20.482;2023-06-05T08:47:28;5.22;;;4.68;;
21152;SDS011;10734;44.792;20.482;2023-06-05T08:49:57;6.22;;;4.82;;
21152;SDS011;10734;44.792;20.482;2023-06-05T08:52:27;8.35;;;3.92;;
21152;SDS011;10734;44.792;20.482;2023-06-05T08:54:56;5.13;;;4.10;;
21152;SDS011;10734;44.792;20.482;2023-06-05T08:57:24;8.88;;;4.57;;
21152;SDS011;10734;44.792;20.482;2023-06-05T08:59:51;6.28;;;4.22;;
21152;SDS011;10734;44.792;20.482;2023-06-05T09:02:18;4.22;;;3.80;;
21152;SDS011;10734;44.792;20.482;2023-06-05T09:04:46;5.88;;;3.90;;
21152;SDS011;10734;44.792;20.482;2023-06-05T09:07:13;8.15;;;3.92;;
21152;SDS011;10734;44.792;20.482;2023-06-05T09:09:42;6.03;;;4.68;;
21152;SDS011;10734;44.792;20.482;2023-06-05T09:12:09;12.00;;;4.57;;
21152;SDS011;10734;44.792;20.482;2023-06-05T09:14:36;5.88;;;4.18;;
21152;SDS011;10734;44.792;20.482;2023-06-05T09:17:03;5.57;;;4.45;;
21152;SDS011;10734;44.792;20.482;2023-06-05T09:19:36;6.90;;;4.18;;
21152;SDS011;10734;44.792;20.482;2023-06-05T09:22:06;4.38;;;3.75;;
21152;SDS011;10734;44.792;20.482;2023-06-05T09:24:34;4.93;;;4.40;;
21152;SDS011;10734;44.792;20.482;2023-06-05T09:29:30;6.00;;;3.20;;
21152;SDS011;10734;44.792;20.482;2023-06-05T09:32:05;6.00;;;3.75;;
21152;SDS011;10734;44.792;20.482;2023-06-05T09:34:35;4.13;;;3.42;;
21152;SDS011;10734;44.792;20.482;2023-06-05T09:37:09;6.75;;;4.20;;
21152;SDS011;10734;44.792;20.482;2023-06-05T09:39:39;6.72;;;3.50;;
21152;SDS011;10734;44.792;20.482;2023-06-05T09:42:09;7.13;;;4.18;;
21152;SDS011;10734;44.792;20.482;2023-06-05T09:44:37;6.07;;;3.67;;
21152;SDS011;10734;44.792;20.482;2023-06-05T09:47:04;4.90;;;3.63;;
21152;SDS011;10734;44.792;20.482;2023-06-05T09:52:07;5.88;;;3.88;;
21152;SDS011;10734;44.792;20.482;2023-06-05T09:54:37;5.35;;;4.18;;
21152;SDS011;10734;44.792;20.482;2023-06-05T09:57:06;4.75;;;4.07;;
21152;SDS011;10734;44.792;20.482;2023-06-05T09:59:51;5.47;;;3.90;;
21152;SDS011;10734;44.792;20.482;2023-06-05T10:02:20;7.25;;;3.95;;
21152;SDS011;10734;44.792;20.482;2023-06-05T10:04:57;4.95;;;3.90;;
21152;SDS011;10734;44.792;20.482;2023-06-05T10:07:27;5.07;;;3.80;;
21152;SDS011;10734;44.792;20.482;2023-06-05T10:09:54;6.28;;;3.60;;
21152;SDS011;10734;44.792;20.482;2023-06-05T10:12:22;6.00;;;4.07;;
21152;SDS011;10734;44.792;20.482;2023-06-05T10:14:51;8.45;;;4.15;;
21152;SDS011;10734;44.792;20.482;2023-06-05T10:17:18;8.52;;;4.43;;
21152;SDS011;10734;44.792;20.482;2023-06-05T10:19:47;7.75;;;4.32;;
21152;SDS011;10734;44.792;20.482;2023-06-05T10:22:16;4.40;;;3.85;;
21152;SDS011;10734;44.792;20.482;2023-06-05T10:24:55;4.90;;;3.70;;
21152;SDS011;10734;44.792;20.482;2023-06-05T10:39:15;8.05;;;4.55;;
21152;SDS011;10734;44.792;20.482;2023-06-05T10:41:44;5.07;;;4.43;;
21152;SDS011;10734;44.792;20.482;2023-06-05T10:44:11;4.72;;;4.25;;
21152;SDS011;10734;44.792;20.482;2023-06-05T10:46:39;4.45;;;4.00;;
21152;SDS011;10734;44.792;20.482;2023-06-05T10:49:10;7.07;;;4.03;;
21152;SDS011;10734;44.792;20.482;2023-06-05T10:51:42;8.27;;;4.30;;
21152;SDS011;10734;44.792;20.482;2023-06-05T10:54:14;5.93;;;3.75;;
21152;SDS011;10734;44.792;20.482;2023-06-05T10:57:02;7.63;;;4.03;;
21152;SDS011;10734;44.792;20.482;2023-06-05T10:59:34;5.60;;;3.85;;
21152;SDS011;10734;44.792;20.482;2023-06-05T11:07:19;7.85;;;4.05;;
21152;SDS011;10734;44.792;20.482;2023-06-05T11:15:02;4.95;;;3.63;;
21152;SDS011;10734;44.792;20.482;2023-06-05T11:17:30;5.38;;;4.00;;
21152;SDS011;10734;44.792;20.482;2023-06-05T11:20:07;7.80;;;5.20;;
21152;SDS011;10734;44.792;20.482;2023-06-05T11:25:27;10.10;;;5.97;;
21152;SDS011;10734;44.792;20.482;2023-06-05T11:27:59;10.80;;;5.35;;
21152;SDS011;10734;44.792;20.482;2023-06-05T11:30:29;6.07;;;4.82;;
21152;SDS011;10734;44.792;20.482;2023-06-05T11:35:41;9.82;;;5.43;;
21152;SDS011;10734;44.792;20.482;2023-06-05T11:38:20;6.93;;;5.57;;
21152;SDS011;10734;44.792;20.482;2023-06-05T11:40:50;10.15;;;4.90;;
21152;SDS011;10734;44.792;20.482;2023-06-05T11:43:17;9.32;;;4.70;;
21152;SDS011;10734;44.792;20.482;2023-06-05T11:45:49;5.78;;;4.28;;
21152;SDS011;10734;44.792;20.482;2023-06-05T11:48:19;5.05;;;3.90;;
21152;SDS011;10734;44.792;20.482;2023-06-05T11:51:05;8.75;;;4.32;;
21152;SDS011;10734;44.792;20.482;2023-06-05T11:53:32;8.13;;;3.70;;
21152;SDS011;10734;44.792;20.482;2023-06-05T11:55:59;8.93;;;4.28;;
21152;SDS011;10734;44.792;20.482;2023-06-05T11:58:35;5.88;;;4.25;;
21152;SDS011;10734;44.792;20.482;2023-06-05T12:03:31;8.27;;;4.10;;
21152;SDS011;10734;44.792;20.482;2023-06-05T12:06:00;12.25;;;4.28;;
21152;SDS011;10734;44.792;20.482;2023-06-05T12:08:29;4.78;;;4.00;;
21152;SDS011;10734;44.792;20.482;2023-06-05T12:11:02;4.57;;;3.70;;
21152;SDS011;10734;44.792;20.482;2023-06-05T12:13:49;6.90;;;4.28;;
21152;SDS011;10734;44.792;20.482;2023-06-05T12:16:18;7.63;;;4.00;;
21152;SDS011;10734;44.792;20.482;2023-06-05T12:18:46;8.07;;;3.92;;
21152;SDS011;10734;44.792;20.482;2023-06-05T12:21:25;4.82;;;3.90;;
21152;SDS011;10734;44.792;20.482;2023-06-05T12:24:03;8.07;;;3.85;;
21152;SDS011;10734;44.792;20.482;2023-06-05T12:27:05;8.15;;;3.95;;
21152;SDS011;10734;44.792;20.482;2023-06-05T12:29:32;9.20;;;4.13;;
21152;SDS011;10734;44.792;20.482;2023-06-05T12:32:22;7.20;;;3.95;;
21152;SDS011;10734;44.792;20.482;2023-06-05T12:34:50;7.03;;;3.75;;
21152;SDS011;10734;44.792;20.482;2023-06-05T12:37:39;6.10;;;3.70;;
21152;SDS011;10734;44.792;20.482;2023-06-05T12:40:06;6.63;;;3.70;;
21152;SDS011;10734;44.792;20.482;2023-06-05T12:42:38;4.68;;;4.00;;
21152;SDS011;10734;44.792;20.482;2023-06-05T12:45:07;4.82;;;3.92;;
21152;SDS011;10734;44.792;20.482;2023-06-05T12:47:36;5.13;;;3.58;;
21152;SDS011;10734;44.792;20.482;2023-06-05T12:50:07;5.82;;;3.58;;
21152;SDS011;10734;44.792;20.482;2023-06-05T12:52:39;5.10;;;3.58;;
21152;SDS011;10734;44.792;20.482;2023-06-05T12:55:07;4.28;;;3.88;;
21152;SDS011;10734;44.792;20.482;2023-06-05T12:57:34;5.00;;;3.70;;
21152;SDS011;10734;44.792;20.482;2023-06-05T13:00:05;5.22;;;3.30;;
21152;SDS011;10734;44.792;20.482;2023-06-05T13:02:43;8.00;;;3.20;;
21152;SDS011;10734;44.792;20.482;2023-06-05T13:05:14;7.60;;;3.92;;
21152;SDS011;10734;44.792;20.482;2023-06-05T13:07:42;4.82;;;3.40;;
21152;SDS011;10734;44.792;20.482;2023-06-05T13:10:09;13.38;;;4.13;;
21152;SDS011;10734;44.792;20.482;2023-06-05T13:12:39;4.60;;;3.13;;
21152;SDS011;10734;44.792;20.482;2023-06-05T13:15:07;4.97;;;3.65;;
21152;SDS011;10734;44.792;20.482;2023-06-05T13:17:34;4.65;;;3.30;;
21152;SDS011;10734;44.792;20.482;2023-06-05T13:20:04;6.38;;;3.53;;
21152;SDS011;10734;44.792;20.482;2023-06-05T13:22:34;3.33;;;2.97;;
21152;SDS011;10734;44.792;20.482;2023-06-05T13:25:02;5.45;;;3.30;;
21152;SDS011;10734;44.792;20.482;2023-06-05T13:27:30;5.35;;;2.92;;
21152;SDS011;10734;44.792;20.482;2023-06-05T13:29:59;6.68;;;3.30;;
21152;SDS011;10734;44.792;20.482;2023-06-05T13:32:25;5.00;;;3.20;;
21152;SDS011;10734;44.792;20.482;2023-06-05T13:34:53;6.20;;;3.65;;
21152;SDS011;10734;44.792;20.482;2023-06-05T13:37:20;6.22;;;3.45;;
21152;SDS011;10734;44.792;20.482;2023-06-05T13:39:49;6.35;;;3.15;;
21152;SDS011;10734;44.792;20.482;2023-06-05T13:42:16;5.82;;;3.10;;
21152;SDS011;10734;44.792;20.482;2023-06-05T13:44:45;5.97;;;3.38;;
21152;SDS011;10734;44.792;20.482;2023-06-05T13:47:12;8.95;;;3.45;;
21152;SDS011;10734;44.792;20.482;2023-06-05T13:49:39;4.70;;;3.22;;
21152;SDS011;10734;44.792;20.482;2023-06-05T13:52:07;4.30;;;3.00;;
21152;SDS011;10734;44.792;20.482;2023-06-05T13:54:35;4.55;;;3.03;;
21152;SDS011;10734;44.792;20.482;2023-06-05T13:57:02;4.50;;;3.22;;
21152;SDS011;10734;44.792;20.482;2023-06-05T13:59:30;5.85;;;3.42;;
21152;SDS011;10734;44.792;20.482;2023-06-05T14:01:57;5.32;;;3.17;;
21152;SDS011;10734;44.792;20.482;2023-06-05T14:04:23;5.93;;;4.00;;
21152;SDS011;10734;44.792;20.482;2023-06-05T14:06:51;5.50;;;3.70;;
21152;SDS011;10734;44.792;20.482;2023-06-05T14:09:20;6.07;;;3.67;;
21152;SDS011;10734;44.792;20.482;2023-06-05T14:11:48;5.95;;;3.92;;
21152;SDS011;10734;44.792;20.482;2023-06-05T14:14:14;5.28;;;3.78;;
21152;SDS011;10734;44.792;20.482;2023-06-05T14:16:42;4.80;;;3.30;;
21152;SDS011;10734;44.792;20.482;2023-06-05T14:19:09;6.75;;;3.88;;
21152;SDS011;10734;44.792;20.482;2023-06-05T14:21:37;3.83;;;3.42;;
21152;SDS011;10734;44.792;20.482;2023-06-05T14:24:06;8.63;;;3.20;;
21152;SDS011;10734;44.792;20.482;2023-06-05T14:26:36;5.80;;;3.45;;
21152;SDS011;10734;44.792;20.482;2023-06-05T14:29:03;4.10;;;3.40;;
21152;SDS011;10734;44.792;20.482;2023-06-05T14:31:32;7.80;;;4.05;;
21152;SDS011;10734;44.792;20.482;2023-06-05T14:33:59;6.38;;;3.40;;
21152;SDS011;10734;44.792;20.482;2023-06-05T14:36:27;4.80;;;3.60;;
21152;SDS011;10734;44.792;20.482;2023-06-05T14:38:54;4.70;;;3.85;;
21152;SDS011;10734;44.792;20.482;2023-06-05T14:41:22;6.57;;;3.65;;
21152;SDS011;10734;44.792;20.482;2023-06-05T14:43:49;6.40;;;4.18;;
21152;SDS011;10734;44.792;20.482;2023-06-05T14:46:17;5.68;;;4.05;;
21152;SDS011;10734;44.792;20.482;2023-06-05T14:48:44;4.55;;;3.63;;
21152;SDS011;10734;44.792;20.482;2023-06-05T14:51:12;4.70;;;3.47;;
21152;SDS011;10734;44.792;20.482;2023-06-05T14:53:39;5.50;;;3.63;;
21152;SDS011;10734;44.792;20.482;2023-06-05T14:56:05;5.10;;;3.42;;
21152;SDS011;10734;44.792;20.482;2023-06-05T14:58:33;7.63;;;3.20;;
21152;SDS011;10734;44.792;20.482;2023-06-05T15:01:00;5.68;;;3.95;;
21152;SDS011;10734;44.792;20.482;2023-06-05T15:03:27;7.53;;;3.95;;
21152;SDS011;10734;44.792;20.482;2023-06-05T15:05:54;9.18;;;3.85;;
21152;SDS011;10734;44.792;20.482;2023-06-05T15:08:27;11.45;;;3.95;;
21152;SDS011;10734;44.792;20.482;2023-06-05T15:10:54;11.25;;;4.03;;
21152;SDS011;10734;44.792;20.482;2023-06-05T15:13:30;8.82;;;3.83;;
21152;SDS011;10734;44.792;20.482;2023-06-05T15:15:57;4.88;;;3.58;;
21152;SDS011;10734;44.792;20.482;2023-06-05T15:18:27;6.38;;;3.70;;
21152;SDS011;10734;44.792;20.482;2023-06-05T15:20:58;5.05;;;3.90;;